createdAt,value
2023-04-25T00:01:22.841Z,18.85
2023-04-25T00:03:50.338Z,21.25
2023-04-25T00:06:18.785Z,22.10
2023-04-25T00:08:45.735Z,18.65
2023-04-25T00:11:13.156Z,27.23
2023-04-25T00:13:42.768Z,20.75
2023-04-25T00:16:10.429Z,22.00
2023-04-25T00:18:38.006Z,18.95
2023-04-25T00:21:07.609Z,21.15
2023-04-25T00:23:36.627Z,21.60
2023-04-25T00:26:04.083Z,19.17
2023-04-25T00:28:31.180Z,19.92
2023-04-25T00:30:59.194Z,18.25
2023-04-25T00:33:26.403Z,21.40
2023-04-25T00:35:53.857Z,19.27
2023-04-25T00:38:21.220Z,23.13
2023-04-25T00:40:48.723Z,20.65
2023-04-25T00:43:16.216Z,22.63
2023-04-25T00:45:44.220Z,22.73
2023-04-25T00:48:11.412Z,24.23
2023-04-25T00:50:39.196Z,22.10
2023-04-25T00:53:06.449Z,19.48
2023-04-25T00:55:35.701Z,20.50
2023-04-25T00:58:02.966Z,21.25
2023-04-25T01:00:30.236Z,20.17
2023-04-25T01:02:57.238Z,21.80
2023-04-25T01:05:24.716Z,21.88
2023-04-25T01:07:51.770Z,25.02
2023-04-25T01:10:18.897Z,20.92
2023-04-25T01:12:47.280Z,21.00
2023-04-25T01:15:14.663Z,20.13
2023-04-25T01:17:42.381Z,20.38
2023-04-25T01:20:10.580Z,21.35
2023-04-25T01:22:37.974Z,21.35
2023-04-25T01:25:06.096Z,22.80
2023-04-25T01:27:33.402Z,23.70
2023-04-25T01:30:01.989Z,23.85
2023-04-25T01:32:39.199Z,22.60
2023-04-25T01:35:12.211Z,20.05
2023-04-25T01:37:43.793Z,21.90
2023-04-25T01:40:13.802Z,22.70
2023-04-25T01:42:43.588Z,21.60
2023-04-25T01:45:12.178Z,20.17
2023-04-25T01:47:41.253Z,23.60
2023-04-25T01:50:09.494Z,18.52
2023-04-25T01:52:37.634Z,20.05
2023-04-25T01:55:05.832Z,20.48
2023-04-25T01:57:35.026Z,20.70
2023-04-25T02:00:05.630Z,21.10
2023-04-25T02:02:42.048Z,20.25
2023-04-25T02:05:27.701Z,20.85
2023-04-25T02:07:55.085Z,18.80
2023-04-25T02:10:25.956Z,21.47
2023-04-25T02:13:07.004Z,20.70
2023-04-25T02:16:04.140Z,18.98
2023-04-25T02:18:32.462Z,19.83
2023-04-25T02:21:02.159Z,17.70
2023-04-25T02:23:30.176Z,22.45
2023-04-25T02:25:58.414Z,18.10
2023-04-25T02:28:27.014Z,18.33
2023-04-25T02:30:54.387Z,19.92
2023-04-25T02:33:22.197Z,18.58
2023-04-25T02:35:49.450Z,15.40
2023-04-25T02:38:16.728Z,21.00
2023-04-25T02:40:44.474Z,15.50
2023-04-25T02:43:11.823Z,17.73
2023-04-25T02:45:39.150Z,16.70
2023-04-25T02:48:06.855Z,17.98
2023-04-25T02:50:34.381Z,17.23
2023-04-25T02:53:01.547Z,16.45
2023-04-25T02:55:35.325Z,15.85
2023-04-25T02:58:04.064Z,18.98
2023-04-25T03:00:40.842Z,15.95
2023-04-25T03:03:07.899Z,17.83
2023-04-25T03:05:35.574Z,21.45
2023-04-25T03:08:02.547Z,17.20
2023-04-25T03:10:30.883Z,18.42
2023-04-25T03:13:02.294Z,16.98
2023-04-25T03:15:30.030Z,15.88
2023-04-25T03:17:57.000Z,15.38
2023-04-25T03:20:25.073Z,18.08
2023-04-25T03:22:52.152Z,16.55
2023-04-25T03:25:19.870Z,16.55
2023-04-25T03:27:47.037Z,17.75
2023-04-25T03:30:14.383Z,16.90
2023-04-25T03:32:43.343Z,15.45
2023-04-25T03:35:11.064Z,17.42
2023-04-25T03:37:39.564Z,16.95
2023-04-25T03:40:07.529Z,17.13
2023-04-25T03:43:00.475Z,14.27
2023-04-25T03:45:28.753Z,15.93
2023-04-25T03:47:55.933Z,16.10
2023-04-25T03:50:23.678Z,18.90
2023-04-25T03:52:51.460Z,16.08
2023-04-25T03:55:19.203Z,13.20
2023-04-25T03:57:46.659Z,13.27
2023-04-25T04:00:14.652Z,13.20
2023-04-25T04:02:44.005Z,18.27
2023-04-25T04:05:14.065Z,14.40
2023-04-25T04:07:48.198Z,13.10
2023-04-25T04:10:17.068Z,13.85
2023-04-25T04:12:45.539Z,13.00
2023-04-25T04:15:13.122Z,14.52
2023-04-25T04:17:41.694Z,13.32
2023-04-25T04:20:10.043Z,11.40
2023-04-25T04:22:38.925Z,18.67
2023-04-25T04:25:12.852Z,15.20
2023-04-25T04:27:58.603Z,15.50
2023-04-25T04:30:55.285Z,12.65
2023-04-25T04:33:24.527Z,13.45
2023-04-25T04:35:58.034Z,13.93
2023-04-25T04:38:26.424Z,11.63
2023-04-25T04:40:57.002Z,12.88
2023-04-25T04:43:54.374Z,12.95
2023-04-25T04:46:39.030Z,10.40
2023-04-25T04:49:14.909Z,13.85
2023-04-25T04:51:57.372Z,14.27
2023-04-25T04:54:58.838Z,11.40
2023-04-25T04:57:45.042Z,11.38
2023-04-25T05:00:19.517Z,11.75
2023-04-25T05:03:06.705Z,13.55
2023-04-25T05:05:52.992Z,11.25
2023-04-25T05:08:20.704Z,10.43
2023-04-25T05:11:06.489Z,12.55
2023-04-25T05:13:43.583Z,14.75
2023-04-25T05:19:11.172Z,15.10
2023-04-25T05:21:51.916Z,17.25
2023-04-25T05:24:32.646Z,15.23
2023-04-25T05:30:13.168Z,16.45
2023-04-25T05:33:06.187Z,17.90
2023-04-25T05:35:34.107Z,17.23
2023-04-25T05:38:01.520Z,18.85
2023-04-25T05:40:51.941Z,19.60
2023-04-25T05:43:37.740Z,17.30
2023-04-25T05:46:21.769Z,19.83
2023-04-25T05:49:15.386Z,18.08
2023-04-25T05:52:10.144Z,18.77
2023-04-25T05:54:57.424Z,15.63
2023-04-25T05:57:26.452Z,15.70
2023-04-25T05:59:55.940Z,18.13
2023-04-25T06:02:27.742Z,17.65
2023-04-25T06:04:55.169Z,19.90
2023-04-25T06:07:23.844Z,17.48
2023-04-25T06:09:51.163Z,20.10
2023-04-25T06:12:18.642Z,16.17
2023-04-25T06:14:46.746Z,15.68
2023-04-25T06:17:15.717Z,14.57
2023-04-25T06:19:42.863Z,14.93
2023-04-25T06:22:10.440Z,15.10
2023-04-25T06:24:39.650Z,17.30
2023-04-25T06:27:07.211Z,16.77
2023-04-25T06:29:34.458Z,14.93
2023-04-25T06:32:02.022Z,15.93
2023-04-25T06:34:30.180Z,16.52
2023-04-25T06:36:57.634Z,14.77
2023-04-25T06:39:25.976Z,16.63
2023-04-25T06:41:54.527Z,15.57
2023-04-25T06:44:46.424Z,17.27
2023-04-25T06:47:15.628Z,17.83
2023-04-25T06:49:43.959Z,14.77
2023-04-25T06:52:12.325Z,17.35
2023-04-25T06:54:39.849Z,19.27
2023-04-25T06:57:20.436Z,16.25
2023-04-25T06:59:48.267Z,17.40
2023-04-25T07:02:15.847Z,16.67
2023-04-25T07:04:44.039Z,17.98
2023-04-25T07:07:11.590Z,12.93
2023-04-25T07:09:54.894Z,13.60
2023-04-25T07:12:22.471Z,15.70
2023-04-25T07:14:49.621Z,15.65
2023-04-25T07:17:17.910Z,15.50
2023-04-25T07:19:46.738Z,20.40
2023-04-25T07:22:14.050Z,19.33
2023-04-25T07:24:42.788Z,18.35
2023-04-25T07:27:14.093Z,17.10
2023-04-25T07:29:51.381Z,14.73
2023-04-25T07:32:18.998Z,15.77
2023-04-25T07:34:45.991Z,14.57
2023-04-25T07:37:13.442Z,14.80
2023-04-25T07:39:53.787Z,15.15
2023-04-25T07:42:22.347Z,11.98
2023-04-25T07:44:49.325Z,12.23
2023-04-25T07:47:17.197Z,12.55
2023-04-25T07:49:44.380Z,12.93
2023-04-25T07:52:12.136Z,12.90
2023-04-25T07:54:44.538Z,12.05
2023-04-25T07:57:18.434Z,12.45
2023-04-25T07:59:48.314Z,13.33
2023-04-25T08:02:16.370Z,10.90
2023-04-25T08:04:44.343Z,12.30
2023-04-25T08:07:14.660Z,13.75
2023-04-25T08:09:50.105Z,12.02
2023-04-25T08:12:24.927Z,18.08
2023-04-25T08:14:52.757Z,9.38
2023-04-25T08:17:19.748Z,9.20
2023-04-25T08:19:47.041Z,9.48
2023-04-25T08:22:23.721Z,10.68
2023-04-25T08:24:55.846Z,8.63
2023-04-25T08:27:23.480Z,9.15
2023-04-25T08:29:52.115Z,6.75
2023-04-25T08:32:20.186Z,7.65
2023-04-25T08:35:02.410Z,8.73
2023-04-25T08:37:29.827Z,7.43
2023-04-25T08:40:02.157Z,7.82
2023-04-25T08:42:55.609Z,8.93
2023-04-25T08:45:23.240Z,8.65
2023-04-25T08:47:53.153Z,8.75
2023-04-25T08:50:24.347Z,11.13
2023-04-25T08:52:54.927Z,7.80
2023-04-25T08:55:23.984Z,10.68
2023-04-25T08:57:56.128Z,9.27
2023-04-25T09:00:23.948Z,8.88
2023-04-25T09:02:51.669Z,16.45
2023-04-25T09:05:21.730Z,8.30
2023-04-25T09:07:52.538Z,13.05
2023-04-25T09:10:20.221Z,12.50
2023-04-25T09:13:18.863Z,13.65
2023-04-25T09:16:23.031Z,8.30
2023-04-25T09:19:40.852Z,9.45
2023-04-25T09:22:19.513Z,9.57
2023-04-25T09:24:47.234Z,12.10
2023-04-25T09:27:20.118Z,11.88
2023-04-25T09:29:48.117Z,15.60
2023-04-25T09:32:21.948Z,13.57
2023-04-25T09:34:57.193Z,15.02
2023-04-25T09:37:34.169Z,12.00
2023-04-25T09:40:12.027Z,10.25
2023-04-25T09:43:19.732Z,12.43
2023-04-25T09:45:48.415Z,14.77
2023-04-25T09:48:24.436Z,15.13
2023-04-25T09:51:12.409Z,15.75
2023-04-25T09:53:42.174Z,15.15
2023-04-25T09:56:15.791Z,15.70
2023-04-25T09:58:43.964Z,17.90
2023-04-25T10:01:12.112Z,16.05
2023-04-25T10:03:56.165Z,20.05
2023-04-25T10:06:45.320Z,18.52
2023-04-25T10:09:14.225Z,16.10
2023-04-25T10:11:41.810Z,18.05
2023-04-25T10:14:09.943Z,22.20
2023-04-25T10:16:37.614Z,19.23
2023-04-25T10:19:06.006Z,22.38
2023-04-25T10:21:36.135Z,18.08
2023-04-25T10:24:04.055Z,16.02
2023-04-25T10:26:31.867Z,17.42
2023-04-25T10:29:02.301Z,21.48
2023-04-25T10:31:32.719Z,19.70
2023-04-25T10:34:03.629Z,19.03
2023-04-25T10:36:33.683Z,18.08
2023-04-25T10:39:08.326Z,26.98
2023-04-25T10:41:49.544Z,18.33
2023-04-25T10:44:17.404Z,18.13
2023-04-25T10:46:46.984Z,17.33
2023-04-25T10:49:32.627Z,17.33
2023-04-25T10:52:26.135Z,19.02
2023-04-25T10:54:56.003Z,15.80
2023-04-25T10:57:38.632Z,20.02
2023-04-25T11:00:12.780Z,14.75
2023-04-25T11:02:54.341Z,14.55
2023-04-25T11:08:07.819Z,15.85
2023-04-25T11:10:39.144Z,17.73
2023-04-25T11:13:06.563Z,16.70
2023-04-25T11:15:33.739Z,14.50
2023-04-25T11:18:02.278Z,16.20
2023-04-25T11:20:29.893Z,14.93
2023-04-25T11:23:01.193Z,15.52
2023-04-25T11:25:29.853Z,19.40
2023-04-25T11:27:59.467Z,17.67
2023-04-25T11:30:27.772Z,14.35
2023-04-25T11:32:56.204Z,12.85
2023-04-25T11:35:24.339Z,15.60
2023-04-25T11:37:52.211Z,18.80
2023-04-25T11:40:19.438Z,14.15
2023-04-25T11:42:48.013Z,14.35
2023-04-25T11:45:16.476Z,14.07
2023-04-25T11:47:44.197Z,17.83
2023-04-25T11:50:11.754Z,14.48
2023-04-25T11:52:40.067Z,14.55
2023-04-25T11:55:11.178Z,16.08
2023-04-25T11:57:40.684Z,17.67
2023-04-25T12:00:19.478Z,15.85
2023-04-25T12:02:59.426Z,15.55
2023-04-25T12:05:33.242Z,17.33
2023-04-25T12:08:15.739Z,14.52
2023-04-25T12:10:46.144Z,14.02
2023-04-25T12:13:22.150Z,13.57
2023-04-25T12:15:49.992Z,12.38
2023-04-25T12:18:22.380Z,14.80
2023-04-25T12:20:49.704Z,11.45
2023-04-25T12:23:17.113Z,17.95
2023-04-25T12:25:46.224Z,10.32
2023-04-25T12:28:21.271Z,11.02
2023-04-25T12:30:58.749Z,10.27
2023-04-25T12:33:28.001Z,9.80
2023-04-25T12:35:55.738Z,9.77
2023-04-25T12:38:28.493Z,10.18
2023-04-25T12:40:55.735Z,8.32
2023-04-25T12:43:23.814Z,9.15
2023-04-25T12:45:56.142Z,10.15
2023-04-25T12:48:24.378Z,8.68
2023-04-25T12:50:53.052Z,8.82
2023-04-25T12:53:22.000Z,9.55
2023-04-25T12:55:49.868Z,7.85
2023-04-25T12:58:18.710Z,7.68
2023-04-25T13:00:47.310Z,8.45
2023-04-25T13:03:15.023Z,7.93
2023-04-25T13:05:43.273Z,8.45
2023-04-25T13:08:10.821Z,7.03
2023-04-25T13:10:40.105Z,9.93
2023-04-25T13:13:07.723Z,8.00
2023-04-25T13:15:34.848Z,9.85
2023-04-25T13:18:03.050Z,8.32
2023-04-25T13:20:30.631Z,9.20
2023-04-25T13:22:59.617Z,7.55
2023-04-25T13:25:27.565Z,6.80
2023-04-25T13:27:54.909Z,6.60
2023-04-25T13:30:22.060Z,7.60
2023-04-25T13:32:49.322Z,6.35
2023-04-25T13:35:17.580Z,6.07
2023-04-25T13:37:44.714Z,6.60
2023-04-25T13:40:12.865Z,7.90
2023-04-25T13:42:40.619Z,7.97
2023-04-25T13:45:08.823Z,5.80
2023-04-25T13:47:36.429Z,8.27
2023-04-25T13:50:04.618Z,7.72
2023-04-25T13:52:32.734Z,6.55
2023-04-25T13:55:00.223Z,6.25
2023-04-25T13:57:28.152Z,7.78
2023-04-25T13:59:55.117Z,9.55
2023-04-25T14:02:22.806Z,8.93
2023-04-25T14:04:49.984Z,8.57
2023-04-25T14:07:17.578Z,12.85
2023-04-25T14:09:44.892Z,9.65
2023-04-25T14:12:12.937Z,6.97
2023-04-25T14:14:39.953Z,9.50
2023-04-25T14:17:07.914Z,8.38
2023-04-25T14:19:34.966Z,9.02
2023-04-25T14:22:02.695Z,10.05
2023-04-25T14:24:29.710Z,10.18
2023-04-25T14:26:57.375Z,8.57
2023-04-25T14:29:24.643Z,8.45
2023-04-25T14:31:52.009Z,8.00
2023-04-25T14:34:19.293Z,10.43
2023-04-25T14:36:47.191Z,9.05
2023-04-25T14:39:15.193Z,7.82
2023-04-25T14:41:42.548Z,8.73
2023-04-25T14:44:09.764Z,10.90
2023-04-25T14:46:37.984Z,9.85
2023-04-25T14:49:05.730Z,10.93
2023-04-25T14:51:34.311Z,11.73
2023-04-25T14:54:01.450Z,9.75
2023-04-25T14:56:29.485Z,10.98
2023-04-25T14:58:56.812Z,9.75
2023-04-25T15:01:24.525Z,8.98
2023-04-25T15:03:52.386Z,8.98
2023-04-25T15:06:19.937Z,10.13
2023-04-25T15:08:47.365Z,10.45
2023-04-25T15:11:14.783Z,13.02
2023-04-25T15:13:42.725Z,12.25
2023-04-25T15:16:10.310Z,11.57
2023-04-25T15:18:37.701Z,10.35
2023-04-25T15:21:05.220Z,11.48
2023-04-25T15:23:32.852Z,10.90
2023-04-25T15:26:00.343Z,11.10
2023-04-25T15:28:27.871Z,10.93
2023-04-25T15:30:55.667Z,12.95
2023-04-25T15:33:23.018Z,11.18
2023-04-25T15:35:50.837Z,11.52
2023-04-25T15:38:18.905Z,13.48
2023-04-25T15:40:47.070Z,13.45
2023-04-25T15:43:16.462Z,14.52
2023-04-25T15:45:44.272Z,13.02
2023-04-25T15:48:12.154Z,14.13
2023-04-25T15:50:40.050Z,11.73
2023-04-25T15:53:07.612Z,12.95
2023-04-25T15:55:35.422Z,13.57
2023-04-25T15:58:03.009Z,14.63
2023-04-25T16:00:31.366Z,11.07
2023-04-25T16:02:59.243Z,13.70
2023-04-25T16:05:26.532Z,11.18
2023-04-25T16:07:54.014Z,12.38
2023-04-25T16:10:21.822Z,17.55
2023-04-25T16:12:50.701Z,12.55
2023-04-25T16:15:18.394Z,12.30
2023-04-25T16:17:45.858Z,13.07
2023-04-25T16:20:13.723Z,15.35
2023-04-25T16:22:43.509Z,13.27
2023-04-25T16:25:12.213Z,14.90
2023-04-25T16:27:39.789Z,9.57
2023-04-25T16:30:10.252Z,11.88
2023-04-25T16:32:38.330Z,12.80
2023-04-25T16:35:06.333Z,11.05
2023-04-25T16:37:33.624Z,14.48
2023-04-25T16:40:01.353Z,11.48
2023-04-25T16:42:28.691Z,9.98
2023-04-25T16:44:57.390Z,10.90
2023-04-25T16:47:25.519Z,9.23
2023-04-25T16:49:53.407Z,11.50
2023-04-25T16:52:22.067Z,11.43
2023-04-25T16:54:49.719Z,16.35
2023-04-25T16:57:16.811Z,13.70
2023-04-25T16:59:44.714Z,14.60
2023-04-25T17:02:13.190Z,15.65
2023-04-25T17:04:41.565Z,15.70
2023-04-25T17:07:09.241Z,16.02
2023-04-25T17:09:37.072Z,16.27
2023-04-25T17:12:05.246Z,14.60
2023-04-25T17:14:35.451Z,16.98
2023-04-25T17:17:02.457Z,19.27
2023-04-25T17:19:31.483Z,17.83
2023-04-25T17:21:58.622Z,16.88
2023-04-25T17:24:26.340Z,16.30
2023-04-25T17:26:53.610Z,15.35
2023-04-25T17:29:24.569Z,15.00
2023-04-25T17:31:52.998Z,16.90
2023-04-25T17:34:20.912Z,13.93
2023-04-25T17:36:48.724Z,17.38
2023-04-25T17:39:17.720Z,17.52
2023-04-25T17:41:45.417Z,13.50
2023-04-25T17:44:12.752Z,13.27
2023-04-25T17:46:40.045Z,13.88
2023-04-25T17:49:08.074Z,13.90
2023-04-25T17:51:35.536Z,14.07
2023-04-25T17:54:03.160Z,17.15
2023-04-25T17:56:31.540Z,12.93
2023-04-25T17:58:59.601Z,13.65
2023-04-25T18:01:27.234Z,13.50
2023-04-25T18:03:55.159Z,14.95
2023-04-25T18:06:29.213Z,14.30
2023-04-25T18:08:59.670Z,16.45
2023-04-25T18:11:27.089Z,15.38
2023-04-25T18:13:55.732Z,17.10
2023-04-25T18:16:22.878Z,15.10
2023-04-25T18:18:53.743Z,16.65
2023-04-25T18:21:21.889Z,15.30
2023-04-25T18:23:49.175Z,16.67
2023-04-25T18:26:16.558Z,17.52
2023-04-25T18:28:44.168Z,15.50
2023-04-25T18:31:11.918Z,14.55
2023-04-25T18:33:39.580Z,15.20
2023-04-25T18:36:07.381Z,16.50
2023-04-25T18:38:36.240Z,18.98
2023-04-25T18:41:42.147Z,15.32
2023-04-25T18:44:05.553Z,14.40
2023-04-25T18:46:33.525Z,17.63
2023-04-25T18:49:01.641Z,18.15
2023-04-25T18:51:31.348Z,15.63
2023-04-25T18:53:59.245Z,17.67
2023-04-25T18:56:27.551Z,19.27
2023-04-25T18:58:55.800Z,18.00
2023-04-25T19:01:24.866Z,18.95
2023-04-25T19:03:58.747Z,18.45
2023-04-25T19:06:29.025Z,16.55
2023-04-25T19:08:57.820Z,21.98
2023-04-25T19:11:25.138Z,16.73
2023-04-25T19:13:52.827Z,23.67
2023-04-25T19:16:20.130Z,22.92
2023-04-25T19:18:48.370Z,18.75
2023-04-25T19:21:15.330Z,21.10
2023-04-25T19:23:42.821Z,22.80
2023-04-25T19:26:10.095Z,18.83
2023-04-25T19:28:37.546Z,19.05
2023-04-25T19:31:05.347Z,19.27
2023-04-25T19:33:32.810Z,22.60
2023-04-25T19:35:59.990Z,20.92
2023-04-25T19:38:27.227Z,19.52
2023-04-25T19:40:54.295Z,18.60
2023-04-25T19:43:21.578Z,19.30
2023-04-25T19:45:48.591Z,25.40
2023-04-25T19:48:15.945Z,24.35
2023-04-25T19:50:42.880Z,21.58
2023-04-25T19:53:10.017Z,21.30
2023-04-25T19:55:37.058Z,20.60
2023-04-25T19:58:04.544Z,22.70
2023-04-25T20:00:31.629Z,27.67
2023-04-25T20:02:59.388Z,23.95
2023-04-25T20:05:27.459Z,21.77
2023-04-25T20:07:54.668Z,20.08
2023-04-25T20:10:21.975Z,22.48
2023-04-25T20:12:49.583Z,21.70
2023-04-25T20:15:17.980Z,23.95
2023-04-25T20:17:45.256Z,19.05
2023-04-25T20:20:12.589Z,20.67
2023-04-25T20:22:40.936Z,22.35
2023-04-25T20:25:10.019Z,19.55
2023-04-25T20:27:38.456Z,17.92
2023-04-25T20:30:10.281Z,22.90
2023-04-25T20:32:38.433Z,19.60
2023-04-25T20:35:08.683Z,19.98
2023-04-25T20:37:36.728Z,21.67
2023-04-25T20:40:07.563Z,20.55
2023-04-25T20:42:36.352Z,17.40
2023-04-25T20:45:07.715Z,24.27
2023-04-25T20:47:35.525Z,23.15
2023-04-25T20:50:04.117Z,19.80
2023-04-25T20:52:32.622Z,19.52
2023-04-25T20:54:59.742Z,22.00
2023-04-25T20:57:27.119Z,20.50
2023-04-25T20:59:54.017Z,20.67
2023-04-25T21:02:22.038Z,19.10
2023-04-25T21:04:49.010Z,20.15
2023-04-25T21:07:16.538Z,23.60
2023-04-25T21:09:45.759Z,19.88
2023-04-25T21:12:13.144Z,21.73
2023-04-25T21:14:40.122Z,18.40
2023-04-25T21:17:08.220Z,18.75
2023-04-25T21:19:35.177Z,22.08
2023-04-25T21:22:03.782Z,22.80
2023-04-25T21:24:33.264Z,21.80
2023-04-25T21:27:01.539Z,19.80
2023-04-25T21:29:28.554Z,20.77
2023-04-25T21:31:56.913Z,20.90
2023-04-25T21:34:23.913Z,24.45
2023-04-25T21:36:51.173Z,26.88
2023-04-25T21:39:18.165Z,21.70
2023-04-25T21:41:45.480Z,23.15
2023-04-25T21:44:12.939Z,25.40
2023-04-25T21:46:41.169Z,29.85
2023-04-25T21:49:08.113Z,25.27
2023-04-25T21:51:35.784Z,30.10
2023-04-25T21:54:05.399Z,27.83
2023-04-25T21:56:33.236Z,25.55
2023-04-25T21:59:00.275Z,25.58
2023-04-25T22:01:28.588Z,29.67
2023-04-25T22:03:55.987Z,27.98
2023-04-25T22:06:24.020Z,31.55
2023-04-25T22:08:51.303Z,30.55
2023-04-25T22:11:19.473Z,25.80
2023-04-25T22:13:46.853Z,26.00
2023-04-25T22:16:14.654Z,30.38
2023-04-25T22:18:42.457Z,26.00
2023-04-25T22:21:10.297Z,26.35
2023-04-25T22:23:37.773Z,27.35
2023-04-25T22:26:05.559Z,26.40
2023-04-25T22:28:33.234Z,25.90
2023-04-25T22:31:00.805Z,21.30
2023-04-25T22:33:28.224Z,20.63
2023-04-25T22:35:55.739Z,21.65
2023-04-25T22:38:22.795Z,16.98
2023-04-25T22:40:50.185Z,14.35
2023-04-25T22:43:17.152Z,17.10
2023-04-25T22:45:44.459Z,15.80
2023-04-25T22:48:12.309Z,20.45
2023-04-25T22:50:40.971Z,17.90
2023-04-25T22:53:10.279Z,19.23
2023-04-25T22:55:38.003Z,17.67
2023-04-25T22:58:05.442Z,14.38
2023-04-25T23:00:34.513Z,18.42
2023-04-25T23:03:05.992Z,15.65
2023-04-25T23:05:33.804Z,14.30
2023-04-25T23:08:00.835Z,14.02
2023-04-25T23:10:28.720Z,15.95
2023-04-25T23:12:58.340Z,14.85
2023-04-25T23:15:31.008Z,18.20
2023-04-25T23:17:59.067Z,15.00
2023-04-25T23:20:26.767Z,20.48
2023-04-25T23:22:55.049Z,13.38
2023-04-25T23:25:22.495Z,14.18
2023-04-25T23:27:49.652Z,14.30
2023-04-25T23:30:17.400Z,17.77
2023-04-25T23:32:44.989Z,16.67
2023-04-25T23:35:12.296Z,14.38
2023-04-25T23:37:40.525Z,18.77
2023-04-25T23:40:10.048Z,18.50
2023-04-25T23:42:38.615Z,18.70
2023-04-25T23:45:07.269Z,17.38
2023-04-25T23:47:35.960Z,19.70
2023-04-25T23:50:04.321Z,18.58
2023-04-25T23:52:31.578Z,13.60
2023-04-25T23:54:58.959Z,20.60
2023-04-25T23:57:26.307Z,18.30
2023-04-25T23:59:53.569Z,15.52
